Time;durP1;ratioP1;P1;durP2;ratioP2;P2;SDS_P1;SDS_P2;PMS_P1;PMS_P2;Temp;Humidity;BMP_temperature;BMP_pressure;BME280_temperature;BME280_humidity;BME280_pressure;Samples;Min_cycle;Max_cycle;Signal;HPM_P1;HPM_P2
2024/01/02 00:00:35;;;;;;;;;35.00;24.50;;;;;3.66;100.00;99329.25;6272368;20;2864908;-46
2024/01/02 00:03:03;;;;;;;;;33.00;27.00;;;;;3.67;100.00;99336.31;6274061;20;2500287;-46
2024/01/02 00:05:32;;;;;;;;;28.00;25.00;;;;;3.64;100.00;99326.69;6273461;20;2845307;-45
2024/01/02 00:08:00;;;;;;;;;24.00;21.00;;;;;3.58;100.00;99332.22;6276839;20;2500332;-46
2024/01/02 00:10:29;;;;;;;;;30.00;24.00;;;;;3.42;100.00;99336.38;6274044;20;3596828;-45
2024/01/02 00:12:58;;;;;;;;;32.50;28.00;;;;;3.58;100.00;99334.88;6275384;20;2855483;-46
2024/01/02 00:15:26;;;;;;;;;25.00;22.00;;;;;3.49;100.00;99337.88;6277850;20;2833652;-45
2024/01/02 00:17:54;;;;;;;;;24.50;22.50;;;;;3.53;100.00;99331.53;6274000;20;2500294;-47
2024/01/02 00:20:23;;;;;;;;;26.00;25.00;;;;;3.29;100.00;99331.56;6277712;20;2848226;-47
2024/01/02 00:22:51;;;;;;;;;32.00;26.00;;;;;3.25;100.00;99331.72;6276711;20;2728908;-45
2024/01/02 00:25:20;;;;;;;;;33.50;27.50;;;;;3.43;100.00;99327.50;6308734;20;2847220;-46
2024/01/02 00:27:49;;;;;;;;;30.00;27.50;;;;;3.20;100.00;99331.88;6275439;20;2851301;-48
2024/01/02 00:30:17;;;;;;;;;35.00;29.00;;;;;3.06;100.00;99331.53;6275105;20;2500408;-46
2024/01/02 00:32:45;;;;;;;;;35.50;28.00;;;;;3.15;100.00;99336.50;6273106;20;2500309;-45
2024/01/02 00:35:14;;;;;;;;;28.50;26.50;;;;;3.08;100.00;99333.22;6272188;20;2500287;-47
2024/01/02 00:37:42;;;;;;;;;28.50;24.50;;;;;3.06;100.00;99335.06;6273292;20;2500280;-46
2024/01/02 00:40:11;;;;;;;;;31.00;29.50;;;;;3.14;100.00;99337.44;6275390;20;2841066;-44
2024/01/02 00:42:39;;;;;;;;;36.33;27.00;;;;;3.02;100.00;99340.50;6275144;20;3602335;-47
2024/01/02 00:45:09;;;;;;;;;39.00;30.00;;;;;2.99;100.00;99341.50;6272713;20;2871067;-45
2024/01/02 00:47:37;;;;;;;;;30.50;26.00;;;;;2.58;100.00;99332.34;6274891;20;2841963;-46
2024/01/02 00:50:06;;;;;;;;;32.00;30.00;;;;;2.73;100.00;99342.41;6273847;20;2500698;-48
2024/01/02 00:52:34;;;;;;;;;29.50;25.00;;;;;2.64;100.00;99343.63;6275422;20;2837917;-44
2024/01/02 00:55:06;;;;;;;;;36.00;26.00;;;;;2.55;100.00;99349.22;6272216;20;2860787;-45
2024/01/02 00:57:34;;;;;;;;;30.00;25.50;;;;;2.54;100.00;99346.66;6275121;20;2498224;-45
2024/01/02 01:00:05;;;;;;;;;31.00;26.00;;;;;2.61;100.00;99348.16;6273438;20;2850281;-45
2024/01/02 01:02:33;;;;;;;;;32.00;28.00;;;;;2.95;100.00;99341.66;6273802;20;2500314;-47
2024/01/02 01:05:02;;;;;;;;;32.00;28.50;;;;;2.78;100.00;99345.78;6274668;20;2831595;-45
2024/01/02 01:07:30;;;;;;;;;29.00;25.50;;;;;2.59;100.00;99350.88;6272977;20;2500508;-45
2024/01/02 01:09:58;;;;;;;;;35.00;30.00;;;;;2.58;100.00;99343.84;6272355;20;2494025;-46
2024/01/02 01:12:28;;;;;;;;;34.00;27.50;;;;;2.78;100.00;99345.78;6274904;20;2852407;-46
2024/01/02 01:14:56;;;;;;;;;28.00;26.00;;;;;2.77;100.00;99335.25;6270298;20;2500299;-46
2024/01/02 01:17:23;;;;;;;;;28.50;25.50;;;;;2.74;100.00;99344.16;6273972;20;2500334;-46
2024/01/02 01:19:51;;;;;;;;;30.00;22.50;;;;;2.84;100.00;99345.59;6271650;20;2500406;-45
2024/01/02 01:22:20;;;;;;;;;29.67;21.67;;;;;2.94;100.00;99339.94;6271870;20;3571190;-46
2024/01/02 01:24:49;;;;;;;;;31.50;25.50;;;;;2.93;100.00;99352.34;6270921;20;2849220;-45
2024/01/02 01:27:18;;;;;;;;;41.00;36.50;;;;;2.72;100.00;99346.00;6275922;20;2863920;-46
2024/01/02 01:29:47;;;;;;;;;31.00;26.00;;;;;2.90;100.00;99348.91;6274825;20;2852365;-45
2024/01/02 01:32:15;;;;;;;;;30.50;26.50;;;;;2.74;100.00;99348.59;6272119;20;2498212;-45
2024/01/02 01:35:10;;;;;;;;;36.00;32.00;;;;;2.62;100.00;99344.59;6271072;20;2860813;-46
2024/01/02 01:37:38;;;;;;;;;38.00;30.00;;;;;2.80;100.00;99357.19;6273432;20;2857534;-47
2024/01/02 01:40:08;;;;;;;;;25.00;25.00;;;;;2.96;100.00;99354.00;6272632;20;2500299;-46
2024/01/02 01:42:37;;;;;;;;;30.50;22.00;;;;;2.79;100.00;99351.94;6273020;20;2839888;-47
2024/01/02 01:45:05;;;;;;;;;30.50;26.00;;;;;2.80;100.00;99345.75;6269669;20;2497000;-45
2024/01/02 01:47:33;;;;;;;;;31.00;27.50;;;;;2.73;100.00;99345.06;6271013;20;2500293;-46
2024/01/02 01:50:01;;;;;;;;;33.50;28.50;;;;;2.66;100.00;99337.38;6273075;20;2500426;-45
2024/01/02 01:52:32;;;;;;;;;32.67;26.67;;;;;2.62;100.00;99334.00;6267140;20;2859731;-45
2024/01/02 01:55:01;;;;;;;;;32.50;27.00;;;;;2.50;100.00;99337.06;6302221;20;2855517;-45
2024/01/02 01:57:30;;;;;;;;;31.50;25.50;;;;;2.39;100.00;99343.59;6269286;20;2845133;-46
2024/01/02 01:59:58;;;;;;;;;33.00;30.00;;;;;2.57;100.00;99335.94;6267460;20;2500313;-46
2024/01/02 02:02:26;;;;;;;;;30.50;30.50;;;;;2.40;100.00;99334.72;6270381;20;2500956;-45
2024/01/02 02:04:54;;;;;;;;;35.00;29.00;;;;;2.29;100.00;99342.19;6270740;20;2500380;-45
2024/01/02 02:07:22;;;;;;;;;33.50;29.50;;;;;1.72;100.00;99343.13;6270336;20;2498290;-45
2024/01/02 02:09:51;;;;;;;;;29.00;25.50;;;;;1.49;100.00;99339.41;6271368;20;2500309;-46
2024/01/02 02:12:19;;;;;;;;;31.00;28.00;;;;;1.79;100.00;99341.16;6272642;20;3583619;-51
2024/01/02 02:14:47;;;;;;;;;30.50;29.00;;;;;1.71;100.00;99337.00;6269473;20;2500259;-46
2024/01/02 02:17:34;;;;;;;;;29.00;24.00;;;;;1.44;100.00;99329.88;6270264;20;2500299;-45
2024/01/02 02:20:03;;;;;;;;;27.50;24.00;;;;;1.91;100.00;99336.34;6269923;20;2500445;-46
2024/01/02 02:22:37;;;;;;;;;34.50;29.50;;;;;1.70;100.00;99327.28;6275232;20;2845227;-46
2024/01/02 02:25:08;;;;;;;;;44.67;32.33;;;;;1.80;100.00;99319.94;6272705;20;2877450;-45
2024/01/02 02:27:37;;;;;;;;;42.67;34.33;;;;;2.05;100.00;99319.13;6303201;20;2879445;-50
2024/01/02 02:30:07;;;;;;;;;45.00;36.50;;;;;1.88;100.00;99320.56;6301200;20;2858710;-49
2024/01/02 02:32:35;;;;;;;;;27.00;25.00;;;;;2.10;100.00;99325.16;6278488;20;2848258;-48
2024/01/02 02:35:08;;;;;;;;;39.00;37.00;;;;;1.67;100.00;99327.41;6277816;20;2867058;-49
2024/01/02 02:37:36;;;;;;;;;42.50;34.00;;;;;1.91;100.00;99325.75;6271782;20;2500297;-49
2024/01/02 02:40:06;;;;;;;;;43.00;37.50;;;;;1.90;100.00;99318.75;6278756;20;2867064;-51
2024/01/02 02:42:35;;;;;;;;;37.00;30.50;;;;;1.74;100.00;99323.66;6275625;20;2859045;-52
2024/01/02 02:45:05;;;;;;;;;44.00;34.00;;;;;1.77;100.00;99327.13;6277774;20;2865969;-47
2024/01/02 02:47:34;;;;;;;;;37.00;28.50;;;;;2.02;100.00;99324.53;6276512;20;2848242;-51
2024/01/02 02:50:05;;;;;;;;;26.67;25.00;;;;;2.07;100.00;99327.91;6276872;20;3580656;-52
2024/01/02 02:52:34;;;;;;;;;37.00;28.00;;;;;2.18;100.00;99320.47;6277627;20;2864943;-52
2024/01/02 02:55:03;;;;;;;;;29.00;24.50;;;;;2.17;100.00;99321.41;6273354;20;2500330;-52
2024/01/02 02:57:32;;;;;;;;;40.00;32.50;;;;;2.15;100.00;99320.56;6273188;20;2861787;-49
2024/01/02 03:00:01;;;;;;;;;30.50;24.50;;;;;2.01;100.00;99326.31;6274096;20;2850393;-53
2024/01/02 03:02:32;;;;;;;;;34.50;29.00;;;;;2.18;100.00;99341.66;6275667;20;2839909;-51
2024/01/02 03:05:00;;;;;;;;;29.00;27.00;;;;;2.10;100.00;99326.00;6271768;20;2500321;-47
2024/01/02 03:07:29;;;;;;;;;34.50;28.00;;;;;2.02;100.00;99327.19;6277809;20;2860725;-46
2024/01/02 03:09:58;;;;;;;;;34.00;31.50;;;;;2.08;100.00;99326.97;6276238;20;2852427;-50
2024/01/02 03:12:27;;;;;;;;;36.00;29.50;;;;;1.91;100.00;99331.03;6277239;20;2859659;-47
2024/01/02 03:14:55;;;;;;;;;39.50;27.50;;;;;1.96;100.00;99322.97;6273497;20;2871110;-51
2024/01/02 03:17:24;;;;;;;;;34.50;31.00;;;;;1.73;100.00;99332.50;6276180;20;2845085;-49
2024/01/02 03:19:53;;;;;;;;;38.00;35.00;;;;;1.67;100.00;99322.09;6274226;20;2500461;-49
2024/01/02 03:22:22;;;;;;;;;33.50;29.00;;;;;1.57;100.00;99331.25;6275206;20;2849310;-51
2024/01/02 03:24:49;;;;;;;;;34.00;29.00;;;;;1.70;100.00;99332.59;6271711;20;2500295;-52
2024/01/02 03:27:18;;;;;;;;;36.00;28.00;;;;;1.63;100.00;99322.25;6273733;20;2745164;-50
2024/01/02 03:29:47;;;;;;;;;28.33;26.33;;;;;1.48;100.00;99327.09;6305131;20;3583616;-49
2024/01/02 03:32:15;;;;;;;;;32.00;27.50;;;;;1.59;100.00;99317.97;6274592;20;2500285;-46
2024/01/02 03:34:43;;;;;;;;;34.00;31.00;;;;;1.44;100.00;99329.88;6272051;20;2498309;-51
2024/01/02 03:37:10;;;;;;;;;35.00;31.00;;;;;1.65;100.00;99318.63;6271910;20;2500848;-47
2024/01/02 03:39:38;;;;;;;;;35.50;30.00;;;;;1.76;100.00;99320.94;6271806;20;2500311;-48
2024/01/02 03:42:06;;;;;;;;;37.00;31.00;;;;;1.98;100.00;99322.00;6271694;20;2500382;-49
2024/01/02 03:44:34;;;;;;;;;45.00;35.50;;;;;2.11;100.00;99324.25;6270323;20;2500276;-48
2024/01/02 03:47:03;;;;;;;;;45.50;35.00;;;;;1.83;100.00;99322.50;6275740;20;2867016;-45
2024/01/02 03:49:32;;;;;;;;;40.00;34.50;;;;;1.96;100.00;99313.22;6276312;20;2849275;-46
2024/01/02 03:52:00;;;;;;;;;48.50;40.50;;;;;1.88;100.00;99315.25;6275677;20;2865935;-46
2024/01/02 03:54:29;;;;;;;;;43.50;38.00;;;;;1.36;100.00;99316.88;6273305;20;2871150;-48
2024/01/02 03:56:58;;;;;;;;;45.00;36.00;;;;;1.65;100.00;99310.69;6276501;20;2861703;-51
2024/01/02 03:59:28;;;;;;;;;49.00;38.67;;;;;1.31;100.00;99302.94;6275834;20;2873370;-47
2024/01/02 04:01:57;;;;;;;;;37.50;32.50;;;;;1.21;100.00;99305.00;6308925;20;2862908;-49
2024/01/02 04:04:25;;;;;;;;;36.00;31.00;;;;;1.50;100.00;99293.53;6277495;20;2842019;-49
2024/01/02 04:06:54;;;;;;;;;43.00;38.00;;;;;1.21;100.00;99290.91;6277526;20;2859779;-48
2024/01/02 04:09:23;;;;;;;;;41.50;28.50;;;;;1.26;100.00;99288.97;6273574;20;2862813;-50
2024/01/02 04:11:52;;;;;;;;;38.33;27.67;;;;;1.09;100.00;99292.13;6279618;20;3598176;-49
2024/01/02 04:14:21;;;;;;;;;39.50;27.50;;;;;1.60;100.00;99314.41;6273680;20;2875303;-47
2024/01/02 04:16:49;;;;;;;;;45.00;31.00;;;;;0.99;100.00;99317.97;6273787;20;2869032;-51
2024/01/02 04:19:21;;;;;;;;;48.33;41.00;;;;;0.79;100.00;99325.56;6276422;20;2879397;-47
2024/01/02 04:21:51;;;;;;;;;55.00;44.00;;;;;0.60;100.00;99315.50;6307681;20;2876384;-47
2024/01/02 04:24:21;;;;;;;;;51.00;41.33;;;;;0.95;100.00;99334.84;6306702;20;3616958;-48
2024/01/02 04:26:49;;;;;;;;;31.50;30.00;;;;;0.71;100.00;99330.22;6305957;20;2843131;-49
2024/01/02 04:29:18;;;;;;;;;47.00;31.00;;;;;1.05;100.00;99333.66;6275152;20;2882548;-47
2024/01/02 04:31:47;;;;;;;;;40.00;37.50;;;;;1.21;100.00;99343.78;6275987;20;2851297;-49
2024/01/02 04:34:17;;;;;;;;;47.33;36.00;;;;;0.89;100.00;99327.06;6274425;20;2887776;-47
2024/01/02 04:36:46;;;;;;;;;64.33;50.00;;;;;1.22;100.00;99340.25;6304242;20;2872160;-49
2024/01/02 04:39:15;;;;;;;;;44.50;34.50;;;;;0.73;100.00;99341.63;6307157;20;2847175;-49
2024/01/02 04:41:44;;;;;;;;;50.00;44.50;;;;;0.92;100.00;99340.19;6273981;20;2863517;-50
2024/01/02 04:44:12;;;;;;;;;45.00;37.00;;;;;1.23;100.00;99348.13;6271027;20;2500351;-51
2024/01/02 04:46:42;;;;;;;;;50.00;42.00;;;;;0.87;100.00;99339.47;6272572;20;2822162;-49
2024/01/02 04:49:11;;;;;;;;;43.00;38.00;;;;;0.86;100.00;99340.38;6276157;20;2855505;-46
2024/01/02 04:51:40;;;;;;;;;44.50;36.50;;;;;0.84;100.00;99342.19;6274015;20;2868116;-48
2024/01/02 04:54:08;;;;;;;;;33.00;27.50;;;;;0.67;100.00;99339.16;6271841;20;2845054;-48
2024/01/02 04:56:37;;;;;;;;;30.00;27.33;;;;;0.84;100.00;99345.72;6273439;20;3587791;-48
2024/01/02 04:59:06;;;;;;;;;33.33;26.67;;;;;0.95;100.00;99355.97;6274183;20;2858641;-49
2024/01/02 05:01:35;;;;;;;;;31.00;27.00;;;;;1.14;100.00;99344.88;6301437;20;2500292;-51
2024/01/02 05:04:04;;;;;;;;;28.50;28.50;;;;;0.75;100.00;99339.81;6275362;20;2833728;-50
2024/01/02 05:06:32;;;;;;;;;42.00;33.50;;;;;0.56;100.00;99337.66;6274254;20;2500341;-51
2024/01/02 05:09:00;;;;;;;;;29.50;24.00;;;;;0.64;100.00;99338.31;6276024;20;2841944;-47
2024/01/02 05:11:27;;;;;;;;;33.00;31.00;;;;;0.87;100.00;99334.19;6270709;20;2500391;-50
2024/01/02 05:13:56;;;;;;;;;46.50;40.50;;;;;0.82;100.00;99336.94;6276975;20;2867977;-47
2024/01/02 05:16:27;;;;;;;;;43.00;36.50;;;;;0.92;100.00;99329.59;6272472;20;2860697;-51
2024/01/02 05:18:55;;;;;;;;;38.50;34.00;;;;;0.82;100.00;99330.81;6271449;20;2500308;-51
2024/01/02 05:21:24;;;;;;;;;54.33;41.00;;;;;0.86;100.00;99332.44;6271532;20;2885857;-50
2024/01/02 05:23:52;;;;;;;;;34.50;29.00;;;;;0.90;100.00;99330.59;6302770;20;2502407;-52
2024/01/02 05:26:21;;;;;;;;;43.00;32.50;;;;;0.82;100.00;99325.53;6272821;20;2855507;-51
2024/01/02 05:28:49;;;;;;;;;37.50;35.50;;;;;0.65;100.00;99324.19;6266063;20;2500279;-47
2024/01/02 05:31:17;;;;;;;;;36.50;27.50;;;;;0.76;100.00;99320.38;6273153;20;2862760;-50
2024/01/02 05:33:46;;;;;;;;;37.00;31.50;;;;;1.12;100.00;99317.63;6273441;20;2844054;-48
2024/01/02 05:36:15;;;;;;;;;38.00;36.50;;;;;0.35;100.00;99311.81;6273378;20;2859902;-48
2024/01/02 05:38:44;;;;;;;;;52.50;41.00;;;;;0.48;100.00;99310.59;6271770;20;2869049;-47
2024/01/02 05:41:13;;;;;;;;;56.00;45.00;;;;;0.24;100.00;99300.66;6274208;20;2876966;-48
2024/01/02 05:43:43;;;;;;;;;52.33;40.33;;;;;0.17;100.00;99306.09;6302643;20;3622272;-46
2024/01/02 05:46:13;;;;;;;;;56.33;44.67;;;;;0.26;100.00;99290.91;6305394;20;2864908;-52
2024/01/02 05:48:41;;;;;;;;;45.00;41.50;;;;;0.31;100.00;99308.38;6302502;20;2844031;-48
2024/01/02 05:51:11;;;;;;;;;54.00;45.00;;;;;0.31;100.00;99300.44;6273737;20;2866972;-48
2024/01/02 05:53:39;;;;;;;;;49.50;38.50;;;;;0.02;100.00;99314.38;6301617;20;2500333;-48
2024/01/02 05:56:12;;;;;;;;;64.00;47.00;;;;;0.59;100.00;99319.06;6270360;20;2489848;-48
2024/01/02 05:58:40;;;;;;;;;61.50;46.50;;;;;0.77;100.00;99314.22;6273531;20;2872153;-49
2024/01/02 06:01:08;;;;;;;;;78.50;64.00;;;;;0.53;100.00;99319.25;6270182;20;2866911;-47
2024/01/02 06:03:38;;;;;;;;;76.00;57.50;;;;;0.30;100.00;99325.13;6273783;20;2874245;-48
2024/01/02 06:06:08;;;;;;;;;68.50;53.25;;;;;0.09;100.00;99323.03;6275543;20;3622246;-49
2024/01/02 06:08:45;;;;;;;;;86.33;65.67;;;;;0.02;100.00;99329.38;6311580;20;3641970;-48
2024/01/02 06:11:13;;;;;;;;;81.00;63.00;;;;;0.43;100.00;99323.91;6304776;20;2500405;-48
2024/01/02 06:13:43;;;;;;;;;86.33;64.67;;;;;0.64;100.00;99317.19;6279404;20;3650313;-47
2024/01/02 06:16:13;;;;;;;;;82.00;62.33;;;;;0.50;100.00;99314.06;6309355;20;2889947;-48
2024/01/02 06:18:40;;;;;;;;;70.00;54.00;;;;;0.32;100.00;99322.47;6309175;20;2500374;-48
2024/01/02 06:21:08;;;;;;;;;67.00;54.50;;;;;0.69;100.00;99324.13;6275962;20;2499202;-50
2024/01/02 06:23:38;;;;;;;;;61.00;47.00;;;;;0.62;100.00;99326.91;6277640;20;2870099;-49
2024/01/02 06:26:18;;;;;;;;;55.00;43.00;;;;;0.78;100.00;99334.44;6279382;20;2751375;-47
2024/01/02 06:28:47;;;;;;;;;49.00;36.50;;;;;0.94;100.00;99330.44;6308272;20;2873195;-47
2024/01/02 06:31:14;;;;;;;;;45.00;39.00;;;;;0.94;100.00;99329.59;6275548;20;2500329;-47
2024/01/02 06:33:44;;;;;;;;;62.50;48.00;;;;;0.86;100.00;99324.50;6279843;20;2855554;-48
2024/01/02 06:36:14;;;;;;;;;56.00;45.33;;;;;1.09;100.00;99324.72;6277012;20;2860735;-47
2024/01/02 06:38:44;;;;;;;;;58.67;44.00;;;;;1.17;100.00;99313.06;6309751;20;2879609;-47
2024/01/02 06:41:12;;;;;;;;;51.00;42.00;;;;;1.18;100.00;99312.16;6307262;20;2508629;-48
2024/01/02 06:43:41;;;;;;;;;57.00;45.00;;;;;1.07;100.00;99315.97;6277592;20;2873296;-47
2024/01/02 06:46:12;;;;;;;;;56.00;42.00;;;;;1.42;100.00;99310.53;6278818;20;3634632;-47
2024/01/02 06:48:42;;;;;;;;;46.50;41.50;;;;;1.31;100.00;99314.38;6308470;20;2845080;-48
2024/01/02 06:51:11;;;;;;;;;41.50;38.50;;;;;1.43;100.00;99310.50;6277220;20;2864890;-47
2024/01/02 06:53:40;;;;;;;;;47.67;40.33;;;;;1.51;100.00;99315.56;6278946;20;2877384;-47
2024/01/02 06:56:09;;;;;;;;;33.67;25.00;;;;;1.75;100.00;99308.63;6307734;20;3565858;-47
2024/01/02 06:58:44;;;;;;;;;44.00;36.33;;;;;1.73;100.00;99311.31;6305203;20;2873781;-48
2024/01/02 07:01:17;;;;;;;;;56.33;41.67;;;;;1.69;100.00;99315.00;6305784;20;2872409;-47
2024/01/02 07:03:47;;;;;;;;;79.00;58.67;;;;;1.79;100.00;99310.28;6310534;20;2894161;-47
2024/01/02 07:06:17;;;;;;;;;64.33;48.00;;;;;1.84;100.00;99310.13;6306364;20;2879882;-47
2024/01/02 07:08:47;;;;;;;;;93.67;71.00;;;;;1.97;100.00;99314.97;6308190;20;3656562;-47
2024/01/02 07:11:17;;;;;;;;;71.33;52.67;;;;;1.95;100.00;99324.75;6308940;20;2883725;-47
2024/01/02 07:13:46;;;;;;;;;65.00;46.00;;;;;2.08;100.00;99321.69;6310521;20;2868460;-46
2024/01/02 07:16:16;;;;;;;;;67.00;47.33;;;;;2.18;100.00;99325.75;6307360;20;3628523;-45
2024/01/02 07:18:45;;;;;;;;;63.67;48.67;;;;;2.35;100.00;99330.50;6307320;20;2868020;-47
2024/01/02 07:21:15;;;;;;;;;53.67;43.00;;;;;2.34;100.00;99323.47;6308327;20;2862810;-48
2024/01/02 07:23:45;;;;;;;;;68.00;52.00;;;;;2.25;100.00;99329.94;6307268;20;2889917;-48
2024/01/02 07:26:14;;;;;;;;;42.00;39.00;;;;;2.44;100.00;99326.69;6308832;20;2854489;-47
2024/01/02 07:28:42;;;;;;;;;54.00;42.50;;;;;2.72;100.00;99319.50;6276842;20;2880511;-47
2024/01/02 07:31:13;;;;;;;;;65.00;53.00;;;;;2.96;100.00;99328.34;6275983;20;2500356;-47
2024/01/02 07:33:43;;;;;;;;;77.67;59.00;;;;;2.88;100.00;99324.25;6277662;20;2881597;-47
2024/01/02 07:36:47;;;;;;;;;80.00;59.33;;;;;3.13;100.00;99335.69;6306688;20;3640901;-50
2024/01/02 07:39:16;;;;;;;;;67.50;54.00;;;;;2.75;100.00;99331.78;6307378;20;2879497;-47
2024/01/02 07:41:46;;;;;;;;;43.67;39.00;;;;;3.23;100.00;99336.22;6277863;20;3602396;-48
2024/01/02 07:44:15;;;;;;;;;34.00;32.50;;;;;3.25;100.00;99329.06;6307443;20;2848226;-50
2024/01/02 07:46:44;;;;;;;;;46.50;38.00;;;;;3.38;100.00;99334.78;6278251;20;2864893;-47
2024/01/02 07:49:16;;;;;;;;;45.00;36.00;;;;;3.40;100.00;99327.63;6277070;20;3615945;-47
2024/01/02 07:51:47;;;;;;;;;43.50;36.00;;;;;3.56;100.00;99322.59;6308869;20;2877443;-47
2024/01/02 07:54:16;;;;;;;;;45.00;39.33;;;;;3.53;100.00;99320.94;6269258;20;2869257;-52
2024/01/02 07:56:46;;;;;;;;;42.00;35.33;;;;;3.31;100.00;99320.88;6307249;20;2875518;-51
2024/01/02 07:59:19;;;;;;;;;42.33;34.67;;;;;3.79;100.00;99319.00;6306656;20;2857638;-47
2024/01/02 08:01:49;;;;;;;;;45.67;35.33;;;;;3.85;100.00;99318.78;6307372;20;2881857;-56
2024/01/02 08:04:18;;;;;;;;;37.50;34.50;;;;;3.82;100.00;99313.56;6304800;20;2856416;-52
2024/01/02 08:06:47;;;;;;;;;30.50;26.00;;;;;3.91;100.00;99307.91;6275578;20;2855654;-51
2024/01/02 08:09:16;;;;;;;;;38.00;32.50;;;;;3.91;100.00;99299.94;6276783;20;2860777;-46
2024/01/02 08:11:46;;;;;;;;;33.50;29.00;;;;;3.99;100.00;99304.94;6275371;20;2850315;-47
2024/01/02 08:14:15;;;;;;;;;34.00;30.00;;;;;3.78;100.00;99298.72;6276286;20;2854488;-48
2024/01/02 08:16:42;;;;;;;;;32.50;29.00;;;;;3.91;100.00;99302.59;6275152;20;2500401;-50
2024/01/02 08:19:11;;;;;;;;;35.50;30.00;;;;;3.78;100.00;99296.06;6274789;20;2855496;-46
2024/01/02 08:21:40;;;;;;;;;33.50;30.00;;;;;4.06;100.00;99304.63;6274345;20;2848200;-47
2024/01/02 08:24:09;;;;;;;;;38.00;32.50;;;;;4.32;100.00;99305.34;6276286;20;2862887;-49
2024/01/02 08:26:38;;;;;;;;;43.00;34.00;;;;;3.91;100.00;99305.25;6276293;20;2827390;-47
2024/01/02 08:29:08;;;;;;;;;37.00;32.67;;;;;4.16;100.00;99306.00;6276812;20;3607617;-45
2024/01/02 08:31:37;;;;;;;;;40.00;34.50;;;;;4.28;100.00;99301.09;6308975;20;2864932;-46
2024/01/02 08:34:05;;;;;;;;;38.50;34.50;;;;;4.24;100.00;99308.34;6277207;20;2861861;-47
2024/01/02 08:36:36;;;;;;;;;29.50;29.50;;;;;4.32;100.00;99303.56;6275954;20;2858697;-45
2024/01/02 08:39:06;;;;;;;;;39.00;34.00;;;;;4.58;100.00;99307.75;6275267;20;2861782;-46
2024/01/02 08:41:36;;;;;;;;;36.67;32.00;;;;;4.64;100.00;99303.97;6308114;20;2869181;-46
2024/01/02 08:44:05;;;;;;;;;32.50;28.50;;;;;4.56;100.00;99306.94;6306938;20;2836781;-46
2024/01/02 08:46:34;;;;;;;;;33.00;28.50;;;;;4.78;100.00;99314.00;6278672;20;2851475;-47
2024/01/02 08:49:06;;;;;;;;;30.50;28.00;;;;;4.68;100.00;99315.31;6277353;20;2852456;-47
2024/01/02 08:51:35;;;;;;;;;36.00;29.00;;;;;4.78;100.00;99316.66;6276658;20;2860817;-50
2024/01/02 08:54:04;;;;;;;;;33.50;27.00;;;;;4.78;100.00;99311.34;6271662;20;2855587;-47
2024/01/02 08:56:33;;;;;;;;;27.50;25.50;;;;;4.69;100.00;99312.59;6277236;20;2858651;-47
2024/01/02 08:59:02;;;;;;;;;30.50;23.00;;;;;4.89;100.00;99298.41;6274560;20;2870087;-51
2024/01/02 09:01:30;;;;;;;;;33.00;25.50;;;;;4.75;100.00;99295.50;6271166;20;2500387;-47
2024/01/02 09:03:58;;;;;;;;;28.00;26.00;;;;;4.88;100.00;99294.03;6273658;20;2500302;-47
2024/01/02 09:06:30;;;;;;;;;29.50;24.50;;;;;5.05;100.00;99285.28;6276288;20;2843028;-49
2024/01/02 09:08:58;;;;;;;;;28.50;26.00;;;;;5.06;100.00;99285.22;6272196;20;2500691;-46
2024/01/02 09:11:26;;;;;;;;;21.50;21.50;;;;;5.34;100.00;99293.72;6276222;20;2830542;-47
2024/01/02 09:13:55;;;;;;;;;30.00;25.50;;;;;5.61;100.00;99286.22;6274641;20;2850355;-46
2024/01/02 09:16:33;;;;;;;;;40.00;34.00;;;;;5.52;100.00;99284.03;6275604;20;2867058;-48
2024/01/02 09:19:02;;;;;;;;;27.50;25.00;;;;;5.36;100.00;99286.53;6306875;20;2858614;-46
2024/01/02 09:21:30;;;;;;;;;26.50;24.00;;;;;5.28;100.00;99284.22;6274043;20;2500374;-46
2024/01/02 09:23:59;;;;;;;;;39.00;33.50;;;;;5.34;100.00;99277.75;6274706;20;2853434;-49
2024/01/02 09:26:30;;;;;;;;;31.67;29.00;;;;;5.11;100.00;99278.81;6277201;20;2863441;-49
2024/01/02 09:28:58;;;;;;;;;34.00;30.00;;;;;5.16;100.00;99272.38;6305542;20;2851349;-48
2024/01/02 09:31:30;;;;;;;;;29.00;26.50;;;;;5.30;100.00;99266.41;6273930;20;2841962;-46
2024/01/02 09:33:58;;;;;;;;;31.50;26.50;;;;;5.48;100.00;99259.34;6274417;20;2849349;-48
2024/01/02 09:36:29;;;;;;;;;28.00;25.00;;;;;5.73;100.00;99256.34;6275755;20;2859683;-46
2024/01/02 09:38:59;;;;;;;;;27.50;23.00;;;;;5.73;100.00;99251.03;6273410;20;2852380;-46
2024/01/02 09:41:50;;;;;;;;;30.00;26.00;;;;;5.99;100.00;99247.13;6277760;20;2851406;-46
2024/01/02 09:44:56;;;;;;;;;20.00;19.50;;;;;5.87;100.00;99243.25;6279779;20;2827372;-47
2024/01/02 09:48:04;;;;;;;;;21.00;19.50;;;;;5.88;100.00;99236.97;6274391;20;2500320;-49
2024/01/02 09:50:56;;;;;;;;;25.00;25.00;;;;;6.04;100.00;99233.56;6279588;20;2847198;-50
2024/01/02 09:54:11;;;;;;;;;24.00;24.00;;;;;6.63;100.00;99240.28;6275604;20;2500339;-45
2024/01/02 09:56:59;;;;;;;;;24.50;24.50;;;;;6.50;100.00;99234.75;6276333;20;2851327;-45
2024/01/02 09:59:51;;;;;;;;;44.00;33.67;;;;;6.46;100.00;99237.66;6277621;20;3626321;-47
2024/01/02 10:02:55;;;;;;;;;32.00;28.00;;;;;6.53;100.00;99234.59;6307488;20;2859665;-45
2024/01/02 10:06:33;;;;;;;;;23.00;23.00;;;;;6.56;100.00;99229.09;6276286;20;2849348;-49
2024/01/02 10:09:58;;;;;;;;;23.50;23.50;;;;;6.90;100.00;99239.75;6276187;20;2500315;-46
2024/01/02 10:13:25;;;;;;;;;28.00;24.50;;;;;6.82;100.00;99230.38;6280459;20;2838306;-46
2024/01/02 10:16:29;;;;;;;;;27.50;27.00;;;;;6.69;100.00;99223.97;6275818;20;2838837;-49
2024/01/02 10:19:40;;;;;;;;;29.50;28.00;;;;;6.74;100.00;99216.59;6277929;20;2848189;-50
2024/01/02 10:22:30;;;;;;;;;30.50;30.00;;;;;6.74;100.00;99216.59;6278435;20;2855501;-48
2024/01/02 10:25:14;;;;;;;;;47.00;37.33;;;;;7.11;100.00;99211.03;6276970;20;2875281;-46
2024/01/02 10:28:22;;;;;;;;;33.33;28.00;;;;;6.89;100.00;99209.53;6312069;20;3585761;-47
2024/01/02 10:31:51;;;;;;;;;34.67;30.00;;;;;6.98;100.00;99206.38;6275611;20;2866968;-47
2024/01/02 10:34:35;;;;;;;;;29.00;24.00;;;;;6.93;100.00;99195.09;6308040;20;2843139;-47
2024/01/02 10:37:07;;;;;;;;;30.33;26.67;;;;;7.02;100.00;99188.38;6275727;20;2860262;-45
2024/01/02 10:39:44;;;;;;;;;25.50;22.00;;;;;7.07;100.00;99197.00;6308686;20;2844076;-46
2024/01/02 10:43:05;;;;;;;;;16.00;14.67;;;;;6.84;100.00;99190.25;6279734;20;3533762;-46
2024/01/02 10:46:41;;;;;;;;;23.00;20.00;;;;;6.97;100.00;99193.13;6276262;20;2829444;-46
2024/01/02 10:49:55;;;;;;;;;33.67;23.00;;;;;6.93;100.00;99189.75;6275260;20;2871238;-44
2024/01/02 10:53:51;;;;;;;;;63.67;49.00;;;;;6.95;100.00;99170.97;6303356;20;3636712;-47
2024/01/02 10:56:49;;;;;;;;;75.33;52.33;;;;;6.82;100.00;99165.47;6306639;20;3642981;-43
2024/01/02 11:06:37;;;;;;;;;38.00;30.00;;;;;7.21;100.00;99173.09;6272648;20;3624364;-43
2024/01/02 11:09:28;;;;;;;;;38.33;34.00;;;;;7.22;100.00;99158.78;6274914;20;2865524;-43
2024/01/02 11:12:00;;;;;;;;;31.67;29.00;;;;;7.03;100.00;99163.44;6309667;20;3594068;-43
2024/01/02 11:14:44;;;;;;;;;39.33;32.67;;;;;7.31;100.00;99153.88;6274678;20;3591957;-43
2024/01/02 11:17:15;;;;;;;;;40.00;34.67;;;;;7.50;100.00;99142.97;6309680;20;3587767;-42
2024/01/02 11:20:05;;;;;;;;;32.33;30.00;;;;;7.45;100.00;99137.91;6274829;20;2856534;-42
2024/01/02 11:22:47;;;;;;;;;16.00;11.00;;;;;7.43;100.00;99129.13;6307765;20;2806662;-45
2024/01/02 11:25:19;;;;;;;;;29.00;26.67;;;;;7.55;100.00;99125.72;6272513;20;2850448;-45
2024/01/02 11:28:05;;;;;;;;;30.00;23.67;;;;;7.53;100.00;99122.31;6308348;20;3599236;-44
2024/01/02 11:30:36;;;;;;;;;22.00;20.50;;;;;7.40;100.00;99122.16;6278213;20;2844023;-47
2024/01/02 11:33:36;;;;;;;;;27.50;23.50;;;;;7.55;100.00;99117.72;6277567;20;2853076;-44
2024/01/02 11:36:45;;;;;;;;;26.00;21.00;;;;;7.46;100.00;99113.78;6276282;20;2500276;-44